Time;durP1;ratioP1;P1;durP2;ratioP2;P2;SDS_P1;SDS_P2;PMS_P1;PMS_P2;Temp;Humidity;BMP_temperature;BMP_pressure;BME280_temperature;BME280_humidity;BME280_pressure;Samples;Min_cycle;Max_cycle;Signal;HPM_P1;HPM_P2
2022/06/12 00:00:58;;;;;;;;;;;;;;;23.49;56.86;94898.34;2058782;28;1738;-54
2022/06/12 00:02:00;;;;;;;;;;;;;;;23.54;56.89;94892.31;2058685;28;1101;-55
2022/06/12 00:03:04;;;;;;;;;;;;;;;23.54;57.14;94892.31;2058878;28;1890;-55
2022/06/12 00:04:06;;;;;;;;;;;;;;;23.55;57.07;94896.59;2058964;28;1108;-56
2022/06/12 00:05:09;;;;;;;;;;;;;;;23.49;56.89;94889.50;2058955;28;1198;-56
2022/06/12 00:06:11;;;;;;;;;;;;;;;23.48;57.02;94894.06;2057738;28;1157;-55
2022/06/12 00:07:14;;;;;;;;;;;;;;;23.48;57.48;94891.38;2051112;28;1179;-54
2022/06/12 00:08:16;;;;;;;;;;;;;;;23.46;57.54;94891.59;2058439;28;1575;-54
2022/06/12 00:09:19;;;;;;;;;;;;;;;23.48;57.45;94885.16;2057707;28;1505;-53
2022/06/12 00:10:21;;;;;;;;;;;;;;;23.46;57.73;94891.59;2059035;28;1097;-54
2022/06/12 00:11:26;;;;;;;;;;;;;;;23.48;57.80;94890.53;2058792;28;1077;-54
2022/06/12 00:12:27;;;;;;;;;;;;;;;23.44;57.56;94891.00;2058704;28;1057;-51
2022/06/12 00:13:33;;;;;;;;;;;;;;;23.45;57.67;94889.16;2058877;28;1048;-53
2022/06/12 00:14:35;;;;;;;;;;;;;;;23.45;58.12;94887.28;2058756;28;1125;-52
2022/06/12 00:15:38;;;;;;;;;;;;;;;23.49;57.85;94884.13;2058394;28;1765;-53
2022/06/12 00:16:41;;;;;;;;;;;;;;;23.50;57.72;94888.44;2056589;28;1521;-55
2022/06/12 00:17:44;;;;;;;;;;;;;;;23.52;57.94;94881.00;2054110;28;1008;-54
2022/06/12 00:18:46;;;;;;;;;;;;;;;23.51;57.46;94885.53;2053741;28;1364;-54
2022/06/12 00:19:49;;;;;;;;;;;;;;;23.51;58.24;94885.53;2058017;28;1523;-54
2022/06/12 00:21:10;;;;;;;;;;;;;;;23.50;57.85;94878.53;2058834;28;1117;-55
2022/06/12 00:22:13;;;;;;;;;;;;;;;23.50;57.91;94875.03;2058661;28;1089;-53
2022/06/12 00:23:16;;;;;;;;;;;;;;;23.50;57.64;94872.34;2057391;28;1985;-52
2022/06/12 00:24:20;;;;;;;;;;;;;;;23.51;57.78;94874.00;2058643;28;1121;-55
2022/06/12 00:25:23;;;;;;;;;;;;;;;23.49;57.98;94876.09;2058784;28;1093;-54
2022/06/12 00:26:28;;;;;;;;;;;;;;;23.50;57.83;94878.53;2058760;28;1140;-52
2022/06/12 00:27:30;;;;;;;;;;;;;;;23.50;58.16;94880.41;2058408;28;1233;-54
2022/06/12 00:28:35;;;;;;;;;;;;;;;23.49;58.05;94881.47;2058710;28;1080;-53
2022/06/12 00:29:39;;;;;;;;;;;;;;;23.48;58.25;94877.13;2051447;28;1096;-51
2022/06/12 00:30:40;;;;;;;;;;;;;;;23.49;57.84;94873.41;2057173;28;1787;-54
2022/06/12 00:31:46;;;;;;;;;;;;;;;23.48;57.69;94871.75;2057649;28;1564;-53
2022/06/12 00:32:52;;;;;;;;;;;;;;;23.48;57.88;94877.97;2058583;28;1350;-54
2022/06/12 00:33:55;;;;;;;;;;;;;;;23.48;57.60;94875.28;2058633;28;1110;-53
2022/06/12 00:34:58;;;;;;;;;;;;;;;23.48;57.27;94874.44;2058745;28;1102;-52
2022/06/12 00:36:00;;;;;;;;;;;;;;;23.48;57.90;94869.91;2058778;28;1038;-54
2022/06/12 00:37:04;;;;;;;;;;;;;;;23.48;57.95;94875.28;2058729;28;1078;-54
2022/06/12 00:38:05;;;;;;;;;;;;;;;23.48;57.68;94872.59;2057746;28;1757;-55
2022/06/12 00:39:09;;;;;;;;;;;;;;;23.48;57.88;94872.59;2058719;28;1057;-53
2022/06/12 00:40:13;;;;;;;;;;;;;;;23.49;57.33;94870.72;2057988;28;1481;-54
2022/06/12 00:41:14;;;;;;;;;;;;;;;23.48;57.64;94875.28;2050687;28;1382;-53
2022/06/12 00:42:21;;;;;;;;;;;;;;;23.48;57.96;94875.28;2058348;28;1362;-55
2022/06/12 00:43:27;;;;;;;;;;;;;;;23.48;57.62;94882.50;2058591;28;1915;-54
2022/06/12 00:44:34;;;;;;;;;;;;;;;23.48;58.19;94880.66;2058701;28;1216;-54
2022/06/12 00:45:39;;;;;;;;;;;;;;;23.46;57.73;94875.50;2057504;28;1464;-55
2022/06/12 00:46:46;;;;;;;;;;;;;;;23.47;58.04;94873.63;2058534;28;1034;-54
2022/06/12 00:47:49;;;;;;;;;;;;;;;23.47;57.97;94873.63;2058460;28;1090;-54
2022/06/12 00:48:51;;;;;;;;;;;;;;;23.48;57.29;94874.44;2058642;28;1010;-52
2022/06/12 00:49:55;;;;;;;;;;;;;;;23.50;58.00;94872.34;2058470;28;1049;-55
2022/06/12 00:51:00;;;;;;;;;;;;;;;23.49;57.77;94878.78;2058667;28;1090;-54
2022/06/12 00:52:06;;;;;;;;;;;;;;;23.50;57.91;94872.34;2052914;28;1499;-54
2022/06/12 00:53:11;;;;;;;;;;;;;;;23.49;57.96;94874.22;2053216;28;1172;-55
2022/06/12 00:54:15;;;;;;;;;;;;;;;23.49;58.30;94871.53;2058576;28;1315;-52
2022/06/12 00:55:24;;;;;;;;;;;;;;;23.50;58.14;94875.03;2058626;28;1074;-53
2022/06/12 00:56:28;;;;;;;;;;;;;;;23.50;58.22;94872.34;2058315;28;1299;-55
2022/06/12 00:57:31;;;;;;;;;;;;;;;23.50;58.37;94875.84;2058329;28;1121;-55
2022/06/12 00:58:35;;;;;;;;;;;;;;;23.49;57.92;94870.72;2058112;28;1180;-55
2022/06/12 00:59:41;;;;;;;;;;;;;;;23.49;58.17;94874.22;2058171;28;1719;-51
2022/06/12 01:00:43;;;;;;;;;;;;;;;23.49;58.05;94868.06;2058163;28;1046;-55
2022/06/12 01:01:47;;;;;;;;;;;;;;;23.49;57.95;94870.72;2058435;28;1066;-53
2022/06/12 01:02:49;;;;;;;;;;;;;;;23.49;57.63;94868.06;2058416;28;1030;-55
2022/06/12 01:06:34;;;;;;;;;;;;;;;23.49;58.04;94866.19;2058468;28;1079;-54
2022/06/12 01:07:38;;;;;;;;;;;;;;;23.49;58.36;94868.88;2057781;28;1318;-54
2022/06/12 01:08:41;;;;;;;;;;;;;;;23.50;57.92;94867.00;2058037;28;1026;-54
2022/06/12 01:09:45;;;;;;;;;;;;;;;23.50;58.37;94867.00;2058299;28;1114;-54
2022/06/12 01:10:50;;;;;;;;;;;;;;;23.50;58.17;94865.13;2058191;28;1118;-55
2022/06/12 01:11:54;;;;;;;;;;;;;;;23.49;58.11;94873.41;2058364;28;1106;-53
2022/06/12 01:12:58;;;;;;;;;;;;;;;23.51;58.38;94871.31;2058226;28;1074;-54
2022/06/12 01:14:02;;;;;;;;;;;;;;;23.50;58.24;94861.63;2058034;28;1786;-54
2022/06/12 01:15:09;;;;;;;;;;;;;;;23.49;57.96;94862.69;2048914;28;1493;-54
2022/06/12 01:16:13;;;;;;;;;;;;;;;23.49;57.93;94860.81;2057947;28;1317;-54
2022/06/12 01:17:16;;;;;;;;;;;;;;;23.49;58.24;94860.00;2058336;28;1049;-54
2022/06/12 01:18:21;;;;;;;;;;;;;;;23.50;58.37;94856.25;2058084;28;1072;-54
2022/06/12 01:19:28;;;;;;;;;;;;;;;23.49;58.35;94854.63;2058312;28;1007;-54
2022/06/12 01:20:33;;;;;;;;;;;;;;;23.49;58.24;94860.81;2058177;28;1109;-55
2022/06/12 01:21:51;;;;;;;;;;;;;;;23.50;58.36;94856.25;2058355;28;1078;-55
2022/06/12 01:23:03;;;;;;;;;;;;;;;23.49;57.88;94860.81;2024684;29;1818;-55
2022/06/12 01:24:09;;;;;;;;;;;;;;;23.49;58.10;94855.44;2054817;28;1907;-55
2022/06/12 01:25:30;;;;;;;;;;;;;;;23.49;58.35;94858.13;2058134;28;1180;-55
2022/06/12 01:26:49;;;;;;;;;;;;;;;23.50;58.38;94853.59;2036314;28;1297;-55
2022/06/12 01:28:05;;;;;;;;;;;;;;;23.50;58.21;94858.94;2058055;28;1045;-54
2022/06/12 01:29:13;;;;;;;;;;;;;;;23.49;58.49;94860.00;2058041;28;962;-55
2022/06/12 01:30:17;;;;;;;;;;;;;;;23.49;58.42;94851.97;2057639;28;1605;-51
2022/06/12 01:31:24;;;;;;;;;;;;;;;23.48;58.26;94851.16;2058017;28;1045;-55
2022/06/12 01:32:29;;;;;;;;;;;;;;;23.50;58.47;94848.22;2056941;28;1781;-55
2022/06/12 01:33:35;;;;;;;;;;;;;;;23.51;58.74;94855.22;2058048;28;1784;-55
2022/06/12 01:34:45;;;;;;;;;;;;;;;23.50;58.44;94856.25;2058313;28;1009;-54
2022/06/12 01:35:51;;;;;;;;;;;;;;;23.49;58.68;94854.63;2058022;28;1074;-55
2022/06/12 01:36:58;;;;;;;;;;;;;;;23.49;58.24;94854.63;2057880;28;1157;-54
2022/06/12 01:38:03;;;;;;;;;;;;;;;23.50;58.81;94856.25;2048721;28;1382;-55
2022/06/12 01:39:10;;;;;;;;;;;;;;;23.50;58.54;94853.59;2056772;28;1550;-55
2022/06/12 01:40:19;;;;;;;;;;;;;;;23.49;58.25;94850.09;2058059;28;1105;-56
2022/06/12 01:41:26;;;;;;;;;;;;;;;23.49;58.53;94855.44;2057935;28;1089;-54
2022/06/12 01:42:32;;;;;;;;;;;;;;;23.49;58.65;94851.97;2058095;28;1014;-56
2022/06/12 01:43:39;;;;;;;;;;;;;;;23.48;58.83;94856.50;2058081;28;969;-54
2022/06/12 01:44:46;;;;;;;;;;;;;;;23.49;58.39;94854.63;2058012;28;1963;-51
2022/06/12 01:45:53;;;;;;;;;;;;;;;23.49;58.56;94860.00;2058160;28;1097;-53
2022/06/12 01:47:00;;;;;;;;;;;;;;;23.49;58.28;94854.63;2057878;28;1144;-53
2022/06/12 01:48:04;;;;;;;;;;;;;;;23.50;58.25;94851.72;2057848;28;1726;-53
2022/06/12 01:49:11;;;;;;;;;;;;;;;23.50;58.60;94857.06;2050227;28;1266;-54
2022/06/12 01:50:15;;;;;;;;;;;;;;;23.50;58.29;94850.91;2057714;28;1807;-52
2022/06/12 01:51:21;;;;;;;;;;;;;;;23.50;57.84;94856.25;2058032;28;1095;-51
2022/06/12 01:52:28;;;;;;;;;;;;;;;23.50;58.40;94856.25;2056702;28;1460;-54
2022/06/12 01:53:36;;;;;;;;;;;;;;;23.50;58.62;94856.25;2058089;28;1081;-53
2022/06/12 01:54:41;;;;;;;;;;;;;;;23.49;58.52;94860.00;2058032;28;1429;-53
2022/06/12 01:55:48;;;;;;;;;;;;;;;23.50;58.37;94861.63;2057935;28;1783;-54
2022/06/12 01:56:52;;;;;;;;;;;;;;;23.49;58.15;94865.38;2057649;28;1120;-54
2022/06/12 01:57:57;;;;;;;;;;;;;;;23.50;58.49;94861.63;2057685;28;1097;-52
2022/06/12 01:59:05;;;;;;;;;;;;;;;23.50;58.56;94864.31;2057732;28;1156;-53
2022/06/12 02:00:10;;;;;;;;;;;;;;;23.49;58.37;94866.19;2051727;28;1751;-54
2022/06/12 02:01:16;;;;;;;;;;;;;;;23.49;58.77;94860.81;2049422;28;1463;-56
2022/06/12 02:02:21;;;;;;;;;;;;;;;23.50;58.62;94861.63;2057779;28;1160;-53
2022/06/12 02:03:29;;;;;;;;;;;;;;;23.50;58.61;94856.25;2056877;28;1452;-53
2022/06/12 02:04:33;;;;;;;;;;;;;;;23.50;58.38;94853.59;2049669;28;2089;-53
2022/06/12 02:05:40;;;;;;;;;;;;;;;23.52;58.62;94854.16;2049818;28;1181;-54
2022/06/12 02:06:45;;;;;;;;;;;;;;;23.52;58.83;94851.50;2049931;28;1099;-55
2022/06/12 02:07:51;;;;;;;;;;;;;;;23.50;58.76;94850.91;2049159;28;968;-54
2022/06/12 02:08:56;;;;;;;;;;;;;;;23.51;58.84;94858.72;2049937;28;1019;-54
2022/06/12 02:10:02;;;;;;;;;;;;;;;23.51;58.23;94856.03;2049681;28;1091;-53
2022/06/12 02:13:56;;;;;;;;;;;;;;;23.51;58.23;94849.88;2049596;29;1173;-55
2022/06/12 02:15:01;;;;;;;;;;;;;;;23.49;58.33;94850.09;2050649;28;1748;-55
2022/06/12 02:16:07;;;;;;;;;;;;;;;23.50;58.20;94851.72;2057643;28;1133;-54
2022/06/12 02:17:13;;;;;;;;;;;;;;;23.50;58.04;94853.59;2057551;28;1169;-55
2022/06/12 02:18:20;;;;;;;;;;;;;;;23.51;58.16;94858.72;2056912;28;1440;-54
2022/06/12 02:19:24;;;;;;;;;;;;;;;23.50;58.37;94846.34;2057228;28;1690;-53
2022/06/12 02:20:30;;;;;;;;;;;;;;;23.51;58.74;94847.19;2057669;28;1165;-55
2022/06/12 02:21:37;;;;;;;;;;;;;;;23.50;58.07;94846.34;2057000;28;1502;-53
2022/06/12 02:22:43;;;;;;;;;;;;;;;23.50;58.51;94850.91;2052692;28;1229;-54
2022/06/12 02:23:49;;;;;;;;;;;;;;;23.51;58.53;94845.31;2052688;28;1560;-55
2022/06/12 02:24:53;;;;;;;;;;;;;;;23.50;58.28;94849.03;2057679;28;1989;-54
2022/06/12 02:25:56;;;;;;;;;;;;;;;23.51;58.57;94848.00;2057506;28;986;-55
2022/06/12 02:27:01;;;;;;;;;;;;;;;23.51;58.50;94848.00;2057661;28;1035;-54
2022/06/12 02:28:07;;;;;;;;;;;;;;;23.51;58.35;94849.88;2056703;28;1516;-54
2022/06/12 02:29:13;;;;;;;;;;;;;;;23.51;58.51;94842.63;2057125;28;1030;-54
2022/06/12 02:30:20;;;;;;;;;;;;;;;23.51;58.22;94848.00;2057199;28;1708;-53
2022/06/12 02:31:25;;;;;;;;;;;;;;;23.51;58.61;94847.19;2057596;28;1081;-54
2022/06/12 02:32:32;;;;;;;;;;;;;;;23.51;58.32;94844.50;2057582;28;1113;-54
2022/06/12 02:33:35;;;;;;;;;;;;;;;23.50;58.23;94851.72;2057692;28;1383;-50
2022/06/12 02:34:40;;;;;;;;;;;;;;;23.51;58.71;94847.19;2048154;28;1116;-50
2022/06/12 02:35:45;;;;;;;;;;;;;;;23.51;57.94;94849.88;2057303;28;1383;-52
2022/06/12 02:36:49;;;;;;;;;;;;;;;23.50;58.21;94849.03;2057100;28;1017;-50
2022/06/12 02:37:53;;;;;;;;;;;;;;;23.51;58.38;94845.31;2057667;28;1044;-49
2022/06/12 02:38:58;;;;;;;;;;;;;;;23.51;57.82;94848.00;2056404;28;1544;-48
2022/06/12 02:40:08;;;;;;;;;;;;;;;23.50;58.11;94843.66;2056024;28;1518;-48
2022/06/12 02:41:13;;;;;;;;;;;;;;;23.50;58.63;94854.38;2057604;28;1010;-48
2022/06/12 02:42:17;;;;;;;;;;;;;;;23.50;57.90;94849.03;2056863;28;1550;-51
2022/06/12 02:43:23;;;;;;;;;;;;;;;23.50;58.34;94845.53;2057517;28;1113;-50
2022/06/12 02:44:28;;;;;;;;;;;;;;;23.49;58.42;94850.09;2057086;28;1106;-48
2022/06/12 02:45:34;;;;;;;;;;;;;;;23.50;58.09;94848.22;2052415;28;1915;-50
2022/06/12 02:46:40;;;;;;;;;;;;;;;23.50;58.43;94848.22;2052834;28;1140;-50
2022/06/12 02:47:44;;;;;;;;;;;;;;;23.51;58.18;94841.81;2057411;28;1027;-49
2022/06/12 02:48:46;;;;;;;;;;;;;;;23.49;58.33;94850.09;2057424;28;1121;-49
2022/06/12 02:49:49;;;;;;;;;;;;;;;23.50;58.17;94856.25;2057331;28;1049;-50
2022/06/12 02:50:55;;;;;;;;;;;;;;;23.50;58.22;94851.72;2057364;28;1144;-47
2022/06/12 02:52:02;;;;;;;;;;;;;;;23.50;58.15;94861.63;2056313;28;1507;-50
2022/06/12 02:53:12;;;;;;;;;;;;;;;23.50;58.16;94849.03;2057453;28;994;-54
2022/06/12 02:54:20;;;;;;;;;;;;;;;23.47;57.83;94857.53;2057537;28;1352;-54
2022/06/12 02:55:25;;;;;;;;;;;;;;;23.43;58.02;94861.75;2057582;28;1027;-54
2022/06/12 02:56:34;;;;;;;;;;;;;;;23.49;58.72;94866.19;2056974;28;1110;-55
2022/06/12 02:57:38;;;;;;;;;;;;;;;23.51;58.41;94863.28;2051835;28;1121;-54
2022/06/12 02:58:46;;;;;;;;;;;;;;;23.51;57.98;94855.22;2057340;28;1077;-53
2022/06/12 02:59:54;;;;;;;;;;;;;;;23.51;57.86;94860.59;2057470;28;1759;-53
2022/06/12 03:00:59;;;;;;;;;;;;;;;23.51;58.09;94858.72;2057202;28;1110;-54
2022/06/12 03:02:13;;;;;;;;;;;;;;;23.51;57.88;94866.78;2056665;28;1511;-55
2022/06/12 03:03:20;;;;;;;;;;;;;;;23.51;57.62;94868.63;2057488;28;1053;-55
2022/06/12 03:04:25;;;;;;;;;;;;;;;23.51;57.57;94865.97;2057562;28;1056;-54
2022/06/12 03:05:30;;;;;;;;;;;;;;;23.51;57.97;94863.28;2057412;28;1911;-50
2022/06/12 03:06:32;;;;;;;;;;;;;;;23.44;54.83;94861.50;2056492;28;1573;-52
2022/06/12 03:07:35;;;;;;;;;;;;;;;23.42;57.32;94863.59;2057328;28;1066;-51
2022/06/12 03:08:39;;;;;;;;;;;;;;;23.38;57.72;94859.72;2049143;28;1102;-54
2022/06/12 03:09:42;;;;;;;;;;;;;;;23.39;57.28;94863.22;2057254;28;1099;-52
2022/06/12 03:10:46;;;;;;;;;;;;;;;23.34;57.73;94855.91;2057219;28;1110;-52
2022/06/12 03:11:49;;;;;;;;;;;;;;;23.33;57.97;94862.28;2057374;28;1157;-54
2022/06/12 03:12:56;;;;;;;;;;;;;;;23.31;57.49;94868.94;2057224;28;1114;-51
2022/06/12 03:13:59;;;;;;;;;;;;;;;23.30;56.94;94862.75;2056856;28;1164;-53
2022/06/12 03:15:03;;;;;;;;;;;;;;;23.30;57.89;94857.38;2057489;28;1086;-53
2022/06/12 03:16:12;;;;;;;;;;;;;;;23.28;57.52;94862.19;2056751;28;1498;-52
2022/06/12 03:17:16;;;;;;;;;;;;;;;23.27;57.79;94855.19;2049390;28;1132;-51
2022/06/12 03:18:19;;;;;;;;;;;;;;;23.28;57.59;94861.34;2049424;28;989;-51
2022/06/12 03:19:24;;;;;;;;;;;;;;;23.28;57.28;94858.66;2044755;28;1575;-51
2022/06/12 03:20:31;;;;;;;;;;;;;;;23.28;57.25;94864.88;2051752;28;1842;-50
2022/06/12 03:21:39;;;;;;;;;;;;;;;23.27;57.35;94863.22;2056184;28;1480;-53
2022/06/12 03:22:46;;;;;;;;;;;;;;;23.28;57.34;94853.31;2057237;28;1180;-51
2022/06/12 03:24:01;;;;;;;;;;;;;;;23.27;57.40;94857.03;2057279;28;1125;-49
2022/06/12 03:25:08;;;;;;;;;;;;;;;23.28;57.10;94858.66;2057368;28;1105;-49
2022/06/12 03:26:16;;;;;;;;;;;;;;;23.27;57.59;94863.22;2057166;28;1902;-50
2022/06/12 03:27:22;;;;;;;;;;;;;;;23.27;56.87;94857.03;2056264;28;1618;-50
2022/06/12 03:28:29;;;;;;;;;;;;;;;23.27;56.93;94867.78;2056833;28;1173;-50
2022/06/12 03:29:35;;;;;;;;;;;;;;;23.26;57.66;94861.59;2057040;28;1704;-49
2022/06/12 03:30:41;;;;;;;;;;;;;;;23.26;57.16;94856.25;2050880;28;1713;-51
2022/06/12 03:31:49;;;;;;;;;;;;;;;23.26;56.55;94852.75;2052318;28;1433;-50
2022/06/12 03:33:03;;;;;;;;;;;;;;;23.26;56.68;94856.25;2057215;28;1094;-57
2022/06/12 03:34:10;;;;;;;;;;;;;;;23.26;56.73;94861.59;2057230;28;1173;-57
2022/06/12 03:35:17;;;;;;;;;;;;;;;23.26;56.80;94856.25;2057249;28;1153;-57
2022/06/12 03:36:23;;;;;;;;;;;;;;;23.28;56.05;94858.66;2056706;28;1105;-54
2022/06/12 03:37:32;;;;;;;;;;;;;;;23.29;55.98;94860.31;2057431;28;1010;-54
2022/06/12 03:38:38;;;;;;;;;;;;;;;23.31;56.11;94858.22;2056547;28;1518;-56
2022/06/12 03:39:43;;;;;;;;;;;;;;;23.32;56.73;94860.66;2057274;28;958;-55
2022/06/12 03:40:49;;;;;;;;;;;;;;;23.34;56.22;94863.13;2057061;28;1084;-55
2022/06/12 03:41:53;;;;;;;;;;;;;;;23.34;56.26;94858.56;2056515;28;1564;-58
2022/06/12 03:43:02;;;;;;;;;;;;;;;23.34;56.13;94863.13;2041344;28;1465;-55
2022/06/12 03:44:10;;;;;;;;;;;;;;;23.32;55.20;94854.50;2051739;28;1180;-57
2022/06/12 03:45:15;;;;;;;;;;;;;;;23.31;55.63;94859.03;2054881;28;1466;-56
2022/06/12 03:46:25;;;;;;;;;;;;;;;23.33;55.36;94850.75;2057237;28;1903;-55
2022/06/12 03:47:30;;;;;;;;;;;;;;;23.33;54.98;94853.44;2057136;28;1086;-55
2022/06/12 03:48:35;;;;;;;;;;;;;;;23.34;55.18;94853.22;2057156;28;1044;-55
2022/06/12 03:49:42;;;;;;;;;;;;;;;23.34;55.09;94847.84;2057173;28;1378;-53
2022/06/12 03:50:47;;;;;;;;;;;;;;;23.35;55.05;94854.03;2055728;28;1485;-56
2022/06/12 03:51:52;;;;;;;;;;;;;;;23.35;55.41;94857.50;2058724;28;1073;-56
2022/06/12 03:53:00;;;;;;;;;;;;;;;23.35;55.31;94851.34;2057574;28;1598;-56
2022/06/12 03:54:04;;;;;;;;;;;;;;;23.36;55.65;94845.75;2049792;28;1778;-56
2022/06/12 03:55:09;;;;;;;;;;;;;;;23.36;55.14;94852.97;2058212;28;1407;-56
2022/06/12 03:57:52;;;;;;;;;;;;;;;23.34;55.00;94853.22;2058395;28;1019;-56
2022/06/12 03:58:58;;;;;;;;;;;;;;;23.36;54.81;94855.66;2058101;28;1164;-56
2022/06/12 04:00:03;;;;;;;;;;;;;;;23.36;55.61;94856.47;2058413;28;1025;-56
2022/06/12 04:01:05;;;;;;;;;;;;;;;23.35;54.39;94854.84;2055691;28;1619;-56
2022/06/12 04:02:10;;;;;;;;;;;;;;;23.36;54.75;94858.31;2058416;28;1019;-55
2022/06/12 04:03:13;;;;;;;;;;;;;;;23.37;55.01;94859.97;2058469;28;1109;-57
2022/06/12 04:04:20;;;;;;;;;;;;;;;23.36;54.03;94853.81;2058496;28;1130;-55
2022/06/12 04:05:24;;;;;;;;;;;;;;;23.36;54.22;94855.66;2049714;28;1477;-55
2022/06/12 04:06:29;;;;;;;;;;;;;;;23.36;54.82;94851.13;2057609;28;2329;-55
2022/06/12 04:07:36;;;;;;;;;;;;;;;23.39;54.57;94860.53;2058583;28;1030;-56
2022/06/12 04:08:39;;;;;;;;;;;;;;;23.38;54.27;94861.59;2058074;28;1648;-56
2022/06/12 04:09:44;;;;;;;;;;;;;;;23.36;54.50;94867.22;2058504;28;1070;-55
2022/06/12 04:10:47;;;;;;;;;;;;;;;23.38;54.42;94858.91;2058540;28;1067;-54
2022/06/12 04:11:53;;;;;;;;;;;;;;;23.37;54.72;94874.19;2058257;28;1066;-55
2022/06/12 04:12:55;;;;;;;;;;;;;;;23.37;54.11;94859.97;2056961;28;1451;-55
2022/06/12 04:14:01;;;;;;;;;;;;;;;23.35;54.59;94860.19;2058387;28;1011;-55
2022/06/12 04:15:05;;;;;;;;;;;;;;;23.35;55.15;94868.25;2058243;28;1649;-54
2022/06/12 04:16:12;;;;;;;;;;;;;;;23.34;54.97;94866.63;2045635;29;1152;-54
2022/06/12 04:17:14;;;;;;;;;;;;;;;23.36;55.65;94861.84;2045359;28;1609;-56
2022/06/12 04:18:17;;;;;;;;;;;;;;;23.34;53.89;94868.50;2050392;28;1004;-55
2022/06/12 04:19:23;;;;;;;;;;;;;;;23.30;54.02;94861.94;2057336;28;1677;-57
2022/06/12 04:20:28;;;;;;;;;;;;;;;23.22;53.02;94869.28;2057636;28;1511;-59
2022/06/12 04:21:34;;;;;;;;;;;;;;;23.20;51.81;94870.56;2058333;28;1033;-56
2022/06/12 04:22:42;;;;;;;;;;;;;;;23.02;51.23;94874.97;2058629;28;1160;-58
2022/06/12 04:23:46;;;;;;;;;;;;;;;22.87;51.33;94879.94;2058781;28;1105;-57
2022/06/12 04:24:52;;;;;;;;;;;;;;;22.76;51.50;94872.69;2058692;28;1093;-57
2022/06/12 04:25:56;;;;;;;;;;;;;;;22.64;51.93;94877.97;2058670;28;1113;-57
2022/06/12 04:27:04;;;;;;;;;;;;;;;22.63;51.95;94878.22;2058313;28;1907;-61
2022/06/12 04:28:08;;;;;;;;;;;;;;;22.59;52.18;94880.50;2049959;28;1583;-56
2022/06/12 04:29:20;;;;;;;;;;;;;;;22.49;51.98;94882.94;2058401;28;2063;-56
2022/06/12 04:30:23;;;;;;;;;;;;;;;22.38;52.18;94881.84;2058519;28;1176;-56
2022/06/12 04:31:26;;;;;;;;;;;;;;;22.28;52.21;94879.72;2058322;28;1173;-54
2022/06/12 04:32:28;;;;;;;;;;;;;;;22.20;52.42;94881.88;2058535;28;1107;-56
2022/06/12 04:33:37;;;;;;;;;;;;;;;22.05;52.56;94883.09;2058545;28;1056;-57
2022/06/12 04:34:42;;;;;;;;;;;;;;;22.05;52.77;94885.75;2058654;28;1053;-56
2022/06/12 04:35:48;;;;;;;;;;;;;;;22.06;52.64;94889.25;2057393;28;1518;-57
2022/06/12 04:36:52;;;;;;;;;;;;;;;22.06;52.83;94883.91;2058043;28;1836;-55
2022/06/12 04:37:53;;;;;;;;;;;;;;;22.00;52.70;94890.97;2057049;28;1803;-57
2022/06/12 04:38:56;;;;;;;;;;;;;;;22.00;52.97;94888.28;2053886;28;1416;-57
2022/06/12 04:40:01;;;;;;;;;;;;;;;22.06;52.67;94883.91;2053554;28;1574;-56
2022/06/12 04:41:03;;;;;;;;;;;;;;;22.08;52.71;94879.13;2058487;28;1044;-57
2022/06/12 04:42:07;;;;;;;;;;;;;;;22.04;52.86;94891.31;2058301;28;1066;-57
2022/06/12 04:43:09;;;;;;;;;;;;;;;22.04;52.98;94880.63;2057573;28;1400;-57
2022/06/12 04:44:12;;;;;;;;;;;;;;;22.05;52.88;94890.28;2058554;28;1046;-57
2022/06/12 04:45:15;;;;;;;;;;;;;;;22.05;52.89;94883.09;2058498;28;1073;-57
2022/06/12 04:46:17;;;;;;;;;;;;;;;22.08;52.71;94879.13;2058359;28;1060;-55
2022/06/12 04:47:22;;;;;;;;;;;;;;;22.17;52.24;94884.97;2058132;28;1907;-56
2022/06/12 04:48:26;;;;;;;;;;;;;;;22.21;52.30;94887.00;2057688;28;1701;-56
2022/06/12 04:49:31;;;;;;;;;;;;;;;22.18;52.39;94886.63;2057739;28;1743;-56
2022/06/12 04:50:34;;;;;;;;;;;;;;;22.08;52.41;94887.13;2052456;28;1559;-56
2022/06/12 04:51:37;;;;;;;;;;;;;;;22.02;52.72;94888.84;2053422;28;1800;-57
2022/06/12 04:52:38;;;;;;;;;;;;;;;21.97;52.85;94887.88;2057668;28;1800;-56
2022/06/12 04:53:42;;;;;;;;;;;;;;;21.90;53.10;94896.78;2058419;28;1085;-57
2022/06/12 04:54:45;;;;;;;;;;;;;;;21.83;53.04;94889.88;2055810;28;1735;-57
2022/06/12 04:55:48;;;;;;;;;;;;;;;21.81;53.06;94891.97;2058486;28;1052;-56
2022/06/12 04:56:51;;;;;;;;;;;;;;;21.80;53.29;94901.03;2058170;28;1482;-56
2022/06/12 04:57:53;;;;;;;;;;;;;;;21.83;53.93;94895.25;2056707;28;1523;-54
2022/06/12 04:58:56;;;;;;;;;;;;;;;22.09;52.91;94888.78;2058000;28;1720;-56
2022/06/12 04:59:58;;;;;;;;;;;;;;;22.35;52.27;94884.97;2050488;28;1749;-54
2022/06/12 05:01:01;;;;;;;;;;;;;;;22.51;51.73;94894.25;2057038;28;1492;-59
2022/06/12 05:02:05;;;;;;;;;;;;;;;22.64;51.05;94891.38;2052109;28;1187;-54
2022/06/12 05:03:07;;;;;;;;;;;;;;;22.70;50.75;94900.34;2054390;28;1793;-60
2022/06/12 05:04:10;;;;;;;;;;;;;;;22.74;50.96;94897.03;2058124;28;1627;-57
2022/06/12 05:05:12;;;;;;;;;;;;;;;22.73;50.36;94894.56;2057333;28;1923;-57
2022/06/12 05:06:17;;;;;;;;;;;;;;;22.70;50.76;94895.84;2057057;28;1713;-56
2022/06/12 05:07:20;;;;;;;;;;;;;;;22.62;50.91;94903.34;2057124;28;2536;-54
2022/06/12 05:08:21;;;;;;;;;;;;;;;22.63;50.60;94899.66;2057569;28;1570;-56
2022/06/12 05:09:34;;;;;;;;;;;;;;;22.62;50.50;94898.00;2058447;28;1027;-55
2022/06/12 05:10:37;;;;;;;;;;;;;;;22.53;50.74;94894.81;2057874;28;1753;-58
2022/06/12 05:11:40;;;;;;;;;;;;;;;22.46;51.07;94899.47;2058364;28;1090;-56
2022/06/12 05:12:41;;;;;;;;;;;;;;;22.44;50.97;94897.00;2057257;28;1089;-54
2022/06/12 05:13:44;;;;;;;;;;;;;;;22.46;51.07;94894.09;2049567;28;1453;-55
2022/06/12 05:14:46;;;;;;;;;;;;;;;22.42;51.38;94893.72;2058134;28;1220;-59
2022/06/12 05:15:53;;;;;;;;;;;;;;;22.46;50.93;94889.56;2057381;28;1598;-55
2022/06/12 05:16:56;;;;;;;;;;;;;;;22.33;51.35;94892.41;2057397;28;1106;-56
2022/06/12 05:17:59;;;;;;;;;;;;;;;22.24;51.54;94891.06;2058021;28;1110;-56
2022/06/12 05:19:02;;;;;;;;;;;;;;;22.16;51.99;94894.88;2058333;28;1045;-57
2022/06/12 05:20:05;;;;;;;;;;;;;;;22.10;52.09;94890.41;2057652;28;1040;-57
2022/06/12 05:21:07;;;;;;;;;;;;;;;22.11;51.85;94892.88;2058272;28;1026;-56
2022/06/12 05:22:12;;;;;;;;;;;;;;;22.10;51.97;94885.88;2058176;28;985;-55
2022/06/12 05:23:13;;;;;;;;;;;;;;;22.10;51.73;94891.22;2057972;28;2195;-57
2022/06/12 05:24:16;;;;;;;;;;;;;;;22.16;51.98;94894.06;2053471;28;1082;-55
2022/06/12 05:25:18;;;;;;;;;;;;;;;22.11;51.85;94895.56;2053106;28;1566;-57
2022/06/12 05:26:21;;;;;;;;;;;;;;;22.07;52.05;94897.03;2058310;28;974;-56
2022/06/12 05:27:23;;;;;;;;;;;;;;;22.05;51.98;94898.28;2057624;28;1938;-56
2022/06/12 05:28:26;;;;;;;;;;;;;;;21.98;52.39;94903.72;2058115;28;1006;-57
2022/06/12 05:29:29;;;;;;;;;;;;;;;21.93;52.45;94894.72;2058115;28;1089;-57
2022/06/12 05:30:34;;;;;;;;;;;;;;;21.92;52.66;94899.25;2058359;28;1011;-55
2022/06/12 05:31:36;;;;;;;;;;;;;;;21.88;52.89;94903.38;2058199;28;1014;-55
2022/06/12 05:32:39;;;;;;;;;;;;;;;21.93;52.68;94911.56;2057903;28;1125;-58
2022/06/12 05:33:41;;;;;;;;;;;;;;;22.19;52.14;94904.31;2058225;28;1152;-61
2022/06/12 05:34:44;;;;;;;;;;;;;;;22.38;52.12;94902.44;2057864;28;1929;-58
2022/06/12 05:35:46;;;;;;;;;;;;;;;22.65;51.80;94905.56;2053770;28;1136;-60
2022/06/12 05:36:49;;;;;;;;;;;;;;;22.79;50.90;94904.38;2053385;28;1743;-62
2022/06/12 05:37:54;;;;;;;;;;;;;;;22.96;50.60;94899.19;2058381;28;1093;-61
2022/06/12 05:38:56;;;;;;;;;;;;;;;23.05;50.99;94905.88;2058379;28;1007;-64
2022/06/12 05:39:59;;;;;;;;;;;;;;;23.10;50.87;94911.31;2058330;28;1003;-56
2022/06/12 05:41:01;;;;;;;;;;;;;;;23.10;50.70;94913.19;2058241;28;1176;-62
2022/06/12 05:42:04;;;;;;;;;;;;;;;23.09;50.35;94914.25;2057873;28;1077;-60
2022/06/12 05:43:05;;;;;;;;;;;;;;;23.06;50.82;94912.84;2058013;28;1101;-59
2022/06/12 05:44:08;;;;;;;;;;;;;;;23.00;50.46;94911.91;2058354;28;1099;-57
2022/06/12 05:45:13;;;;;;;;;;;;;;;22.84;50.54;94920.56;2058326;28;1078;-60
2022/06/12 05:46:17;;;;;;;;;;;;;;;22.75;50.91;94920.09;2058309;28;1085;-58
2022/06/12 05:47:18;;;;;;;;;;;;;;;22.70;50.84;94925.31;2053395;28;1163;-58
2022/06/12 05:48:21;;;;;;;;;;;;;;;22.65;51.13;94927.84;2053482;28;1883;-57
2022/06/12 05:49:23;;;;;;;;;;;;;;;22.60;51.08;94924.19;2057779;28;1144;-58
2022/06/12 05:50:34;;;;;;;;;;;;;;;22.52;51.37;94923.47;2057939;28;1165;-58